createdAt,value
2018-11-22T00:01:03.868Z,102178.48
2018-11-22T00:03:30.963Z,102172.45
2018-11-22T00:05:58.080Z,102177.59
2018-11-22T00:08:25.176Z,102173.34
2018-11-22T00:10:52.410Z,102173.83
2018-11-22T00:13:19.498Z,102162.69
2018-11-22T00:15:46.621Z,102166.16
2018-11-22T00:18:13.735Z,102168.87
2018-11-22T00:20:40.866Z,102166.16
2018-11-22T00:23:08.002Z,102164.88
2018-11-22T00:25:35.115Z,102163.92
2018-11-22T00:28:02.248Z,102169.42
2018-11-22T00:30:29.333Z,102173.57
2018-11-22T00:32:56.459Z,102165.21
2018-11-22T00:35:23.561Z,102156.60
2018-11-22T00:37:51.498Z,102160.31
2018-11-22T00:40:20.673Z,102158.80
2018-11-22T00:42:48.314Z,102154.94
2018-11-22T00:45:16.906Z,102158.00
2018-11-22T00:47:44.062Z,102151.81
2018-11-22T00:50:12.954Z,102165.92
2018-11-22T00:52:40.426Z,102173.70
2018-11-22T00:55:09.105Z,102174.44
2018-11-22T00:57:36.203Z,102169.73
2018-11-22T01:00:03.712Z,102174.73
2018-11-22T01:02:30.816Z,102175.67
2018-11-22T01:04:57.931Z,102173.40
2018-11-22T01:07:25.022Z,102181.38
2018-11-22T01:09:52.154Z,102172.46
2018-11-22T01:12:19.254Z,102173.69
2018-11-22T01:14:46.392Z,102172.31
2018-11-22T01:17:13.515Z,102170.88
2018-11-22T01:19:40.681Z,102163.10
2018-11-22T01:22:07.785Z,102159.94
2018-11-22T01:24:34.913Z,102161.56
2018-11-22T01:27:02.006Z,102159.94
2018-11-22T01:29:29.121Z,102166.47
2018-11-22T01:31:56.246Z,102163.75
2018-11-22T01:34:23.334Z,102161.23
2018-11-22T01:36:50.514Z,102165.92
2018-11-22T01:39:17.619Z,102169.28
2018-11-22T01:41:44.750Z,102163.41
2018-11-22T01:44:11.864Z,102169.04
2018-11-22T01:46:38.927Z,102081.05
2018-11-22T01:49:06.027Z,102161.87
2018-11-22T01:51:33.153Z,102159.84
2018-11-22T01:54:00.276Z,102151.58
2018-11-22T01:56:27.442Z,102157.41
2018-11-22T01:58:54.548Z,102157.66
2018-11-22T02:01:21.981Z,102154.99
2018-11-22T02:03:49.095Z,102157.91
2018-11-22T02:06:16.189Z,102152.22
2018-11-22T02:08:43.313Z,102150.29
2018-11-22T02:11:10.401Z,102140.55
2018-11-22T02:13:37.514Z,102141.78
2018-11-22T02:16:04.679Z,102139.70
2018-11-22T02:18:31.783Z,102139.27
2018-11-22T02:20:58.889Z,102140.64
2018-11-22T02:23:26.029Z,102131.24
2018-11-22T02:25:53.169Z,102135.84
2018-11-22T02:28:21.393Z,102132.93
2018-11-22T02:30:48.507Z,102131.05
2018-11-22T02:33:15.675Z,102126.94
2018-11-22T02:35:42.714Z,102134.55
2018-11-22T02:38:09.824Z,102130.70
2018-11-22T02:40:36.915Z,102122.92
2018-11-22T02:43:05.159Z,102128.95
2018-11-22T02:45:32.298Z,102134.41
2018-11-22T02:47:59.415Z,102131.44
2018-11-22T02:50:26.533Z,102136.92
2018-11-22T02:52:54.433Z,102130.55
2018-11-22T02:55:21.532Z,102132.23
2018-11-22T02:57:48.627Z,102135.05
2018-11-22T03:00:39.609Z,102139.95
2018-11-22T03:03:07.469Z,102142.22
2018-11-22T03:05:34.580Z,102143.56
2018-11-22T03:08:01.854Z,102144.16
2018-11-22T03:10:28.917Z,102135.95
2018-11-22T03:12:56.059Z,102138.37
2018-11-22T03:15:23.177Z,102142.57
2018-11-22T03:17:50.298Z,102149.16
2018-11-22T03:20:17.449Z,102142.98
2018-11-22T03:22:44.795Z,102154.89
2018-11-22T03:25:31.488Z,102144.05
2018-11-22T03:27:58.619Z,102150.24
2018-11-22T03:30:25.845Z,102151.72
2018-11-22T03:32:52.959Z,102149.84
2018-11-22T03:35:21.427Z,102152.60
2018-11-22T03:37:48.977Z,102159.27
2018-11-22T03:40:17.466Z,102164.02
2018-11-22T03:42:44.579Z,102167.78
2018-11-22T03:45:12.433Z,102173.50
2018-11-22T03:47:39.597Z,102168.11
2018-11-22T03:50:11.336Z,102174.96
2018-11-22T03:52:38.995Z,102158.73
2018-11-22T03:55:07.760Z,102160.99
2018-11-22T03:57:34.855Z,102157.44
2018-11-22T04:00:01.974Z,102164.05
2018-11-22T04:02:29.078Z,102159.55
2018-11-22T04:04:56.162Z,102154.64
2018-11-22T04:07:23.287Z,102156.17
2018-11-22T04:09:50.397Z,102149.74
2018-11-22T04:12:17.504Z,102151.42
2018-11-22T04:14:44.623Z,102146.53
2018-11-22T04:17:11.713Z,102156.73
2018-11-22T04:19:38.827Z,102153.28
2018-11-22T04:22:05.920Z,102150.78
2018-11-22T04:24:35.490Z,102145.58
2018-11-22T04:27:02.630Z,102147.75
2018-11-22T04:29:29.746Z,102153.73
2018-11-22T04:31:56.865Z,102147.41
2018-11-22T04:34:23.954Z,102146.37
2018-11-22T04:36:51.142Z,102150.85
2018-11-22T04:39:18.236Z,102149.41
2018-11-22T04:41:45.352Z,102149.48
2018-11-22T04:44:12.451Z,102144.28
2018-11-22T04:46:39.566Z,102148.83
2018-11-22T04:49:06.659Z,102146.85
2018-11-22T04:51:34.086Z,102137.38
2018-11-22T04:54:01.246Z,102148.04
2018-11-22T04:56:28.327Z,102133.03
2018-11-22T04:58:55.467Z,102138.16
2018-11-22T05:01:22.561Z,102142.51
2018-11-22T05:03:49.849Z,102141.55
2018-11-22T05:06:17.033Z,102143.00
2018-11-22T05:08:44.131Z,102150.53
2018-11-22T05:11:11.213Z,102141.48
2018-11-22T05:13:38.314Z,102139.21
2018-11-22T05:16:06.534Z,102139.45
2018-11-22T05:18:32.551Z,102138.72
2018-11-22T05:20:59.682Z,102141.22
2018-11-22T05:23:26.796Z,102150.58
2018-11-22T05:25:53.900Z,102153.88
2018-11-22T05:28:20.996Z,102146.41
2018-11-22T05:30:48.177Z,102147.63
2018-11-22T05:33:15.307Z,102149.07
2018-11-22T05:35:42.425Z,102148.58
2018-11-22T05:38:09.561Z,102150.66
2018-11-22T05:40:36.681Z,102145.52
2018-11-22T05:43:04.398Z,102141.66
2018-11-22T05:45:31.568Z,102143.38
2018-11-22T05:47:58.623Z,102142.09
2018-11-22T05:50:27.235Z,102136.80
2018-11-22T05:52:55.993Z,102138.14
2018-11-22T05:55:23.109Z,102137.66
2018-11-22T05:57:50.210Z,102147.92
2018-11-22T06:00:19.771Z,102143.44
2018-11-22T06:02:46.981Z,102150.66
2018-11-22T06:05:15.069Z,102156.12
2018-11-22T06:07:42.248Z,102165.92
2018-11-22T06:10:14.909Z,102169.84
2018-11-22T06:12:42.048Z,102175.25
2018-11-22T06:15:10.146Z,102177.05
2018-11-22T06:17:37.699Z,102165.05
2018-11-22T06:20:06.943Z,102167.11
2018-11-22T06:22:34.040Z,102163.98
2018-11-22T06:25:03.805Z,102173.44
2018-11-22T06:30:35.506Z,102175.70
2018-11-22T06:33:03.030Z,102174.88
2018-11-22T06:35:30.964Z,102178.86
2018-11-22T06:37:58.229Z,102185.44
2018-11-22T06:40:25.323Z,102182.87
2018-11-22T06:42:53.358Z,102180.61
2018-11-22T06:45:21.901Z,102189.95
2018-11-22T06:47:49.004Z,102192.81
2018-11-22T06:50:17.079Z,102196.00
2018-11-22T06:52:44.257Z,102194.26
2018-11-22T06:55:13.039Z,102199.45
2018-11-22T06:57:40.364Z,102202.42
2018-11-22T07:00:09.703Z,102206.10
2018-11-22T07:02:36.802Z,102209.95
2018-11-22T07:05:04.752Z,102200.18
2018-11-22T07:07:31.847Z,102212.39
2018-11-22T07:09:58.982Z,102207.75
2018-11-22T07:12:26.093Z,102206.55
2018-11-22T07:14:53.196Z,102206.94
2018-11-22T07:17:20.303Z,102198.12
2018-11-22T07:19:47.413Z,102200.69
2018-11-22T07:22:18.833Z,102201.51
2018-11-22T07:24:41.639Z,102214.24
2018-11-22T07:27:08.736Z,102210.49
2018-11-22T07:29:35.846Z,102204.41
2018-11-22T07:32:02.951Z,102211.33
2018-11-22T07:34:30.069Z,102215.63
2018-11-22T07:36:57.171Z,102214.95
2018-11-22T07:39:24.320Z,102211.66
2018-11-22T07:41:51.424Z,102209.16
2018-11-22T07:44:18.519Z,102213.34
2018-11-22T07:46:45.705Z,102224.66
2018-11-22T07:49:12.798Z,102224.83
2018-11-22T07:51:39.889Z,102222.55
2018-11-22T07:54:06.979Z,102227.06
2018-11-22T07:56:34.115Z,102225.28
2018-11-22T07:59:01.213Z,102218.38
2018-11-22T08:01:28.354Z,102228.24
2018-11-22T08:03:55.510Z,102226.23
2018-11-22T08:06:22.620Z,102230.85
2018-11-22T08:08:49.731Z,102230.20
2018-11-22T08:11:16.830Z,102231.02
2018-11-22T08:13:43.998Z,102232.86
2018-11-22T08:16:11.113Z,102237.61
2018-11-22T08:18:38.228Z,102244.13
2018-11-22T08:21:05.834Z,102246.37
2018-11-22T08:23:32.951Z,102244.30
2018-11-22T08:26:00.077Z,102250.25
2018-11-22T08:28:27.192Z,102240.37
2018-11-22T08:30:54.274Z,102235.96
2018-11-22T08:33:21.416Z,102244.56
2018-11-22T08:35:48.543Z,102239.19
2018-11-22T08:38:15.652Z,102245.67
2018-11-22T08:40:42.780Z,102252.86
2018-11-22T08:43:09.880Z,102253.41
2018-11-22T08:45:37.017Z,102247.71
2018-11-22T08:48:04.212Z,102253.11
2018-11-22T08:50:31.859Z,102248.36
2018-11-22T08:53:00.333Z,102247.83
2018-11-22T08:58:01.915Z,102257.80
2018-11-22T09:00:30.117Z,102257.77
2018-11-22T09:02:57.604Z,102259.86
2018-11-22T09:05:26.268Z,102264.28
2018-11-22T09:07:53.346Z,102260.64
2018-11-22T09:10:21.089Z,102259.76
2018-11-22T09:12:49.144Z,102261.56
2018-11-22T09:15:17.565Z,102253.59
2018-11-22T09:17:51.745Z,102261.55
2018-11-22T09:20:20.244Z,102266.06
2018-11-22T09:22:47.312Z,102259.03
2018-11-22T09:25:15.260Z,102271.66
2018-11-22T09:27:42.722Z,102262.55
2018-11-22T09:30:12.030Z,102252.55
2018-11-22T09:32:39.519Z,102249.95
2018-11-22T09:35:07.099Z,102253.77
2018-11-22T09:37:34.243Z,102251.02
2018-11-22T09:40:01.369Z,102258.64
2018-11-22T09:42:28.453Z,102256.27
2018-11-22T09:44:55.579Z,102255.95
2018-11-22T09:47:22.658Z,102247.22
2018-11-22T09:49:50.219Z,102262.97
2018-11-22T09:52:17.347Z,102260.80
2018-11-22T09:54:44.457Z,102261.19
2018-11-22T09:57:11.554Z,102266.58
2018-11-22T09:59:39.017Z,102270.09
2018-11-22T10:02:06.165Z,102269.09
2018-11-22T10:04:33.250Z,102270.27
2018-11-22T10:07:00.311Z,102272.04
2018-11-22T10:09:27.449Z,102277.69
2018-11-22T10:11:54.587Z,102269.15
2018-11-22T10:14:21.686Z,102282.63
2018-11-22T10:16:48.813Z,102274.37
2018-11-22T10:19:15.865Z,102271.94
2018-11-22T10:21:43.041Z,102273.37
2018-11-22T10:24:10.179Z,102274.34
2018-11-22T10:26:37.230Z,102273.10
2018-11-22T10:29:04.364Z,102264.70
2018-11-22T10:31:31.475Z,102267.91
2018-11-22T10:33:58.570Z,102266.97
2018-11-22T10:36:25.675Z,102267.56
2018-11-22T10:38:52.811Z,102264.45
2018-11-22T10:41:19.907Z,102266.70
2018-11-22T10:43:47.055Z,102267.02
2018-11-22T10:46:14.144Z,102272.00
2018-11-22T10:48:41.272Z,102270.36
2018-11-22T10:51:08.375Z,102267.16
2018-11-22T10:53:35.504Z,102270.44
2018-11-22T10:56:02.621Z,102269.15
2018-11-22T10:58:29.719Z,102262.34
2018-11-22T11:01:16.288Z,102259.49
2018-11-22T11:04:02.891Z,102275.38
2018-11-22T11:06:49.464Z,102275.06
2018-11-22T11:09:16.603Z,102275.91
2018-11-22T11:11:43.703Z,102273.42
2018-11-22T11:14:10.821Z,102269.76
2018-11-22T11:16:37.919Z,102261.13
2018-11-22T11:19:05.219Z,102257.79
2018-11-22T11:21:32.326Z,102264.33
2018-11-22T11:23:59.441Z,102259.16
2018-11-22T11:26:26.546Z,102262.47
2018-11-22T11:28:53.726Z,102259.61
2018-11-22T11:31:20.835Z,102258.94
2018-11-22T11:33:47.973Z,102257.24
2018-11-22T11:36:17.904Z,102258.45
2018-11-22T11:38:42.197Z,102262.68
2018-11-22T11:41:09.326Z,102269.75
2018-11-22T11:43:36.423Z,102269.75
2018-11-22T11:46:03.588Z,102262.12
2018-11-22T11:48:30.717Z,102265.52
2018-11-22T11:50:57.809Z,102259.42
2018-11-22T11:53:32.837Z,102264.58
2018-11-22T11:55:52.048Z,102263.16
2018-11-22T11:58:19.145Z,102261.74
2018-11-22T12:00:46.908Z,102260.77
2018-11-22T12:03:14.080Z,102265.05
2018-11-22T12:05:42.137Z,102262.42
2018-11-22T12:08:09.347Z,102256.72
2018-11-22T12:10:36.446Z,102258.41
2018-11-22T12:13:03.642Z,102257.58
2018-11-22T12:15:31.189Z,102254.73
2018-11-22T12:17:58.308Z,102266.89
2018-11-22T12:20:25.454Z,102257.67
2018-11-22T12:22:54.146Z,102262.84
2018-11-22T12:25:22.449Z,102258.97
2018-11-22T12:27:51.147Z,102267.46
2018-11-22T12:30:22.814Z,102267.30
2018-11-22T12:33:09.386Z,102264.18
2018-11-22T12:35:55.957Z,102275.73
2018-11-22T12:38:42.529Z,102272.67
2018-11-22T12:41:09.749Z,102270.23
2018-11-22T12:43:36.900Z,102268.31
2018-11-22T12:46:04.044Z,102266.63
2018-11-22T12:48:31.131Z,102264.27
2018-11-22T12:50:58.304Z,102262.22
2018-11-22T12:53:25.605Z,102262.84
2018-11-22T12:55:52.721Z,102266.63
2018-11-22T12:58:19.865Z,102266.97
2018-11-22T13:00:46.974Z,102259.23
2018-11-22T13:03:14.181Z,102268.52
2018-11-22T13:05:41.426Z,102272.66
2018-11-22T13:08:08.542Z,102270.88
2018-11-22T13:10:35.706Z,102267.36
2018-11-22T13:13:02.814Z,102274.48
2018-11-22T13:15:29.936Z,102272.83
2018-11-22T13:17:57.049Z,102276.95
2018-11-22T13:20:24.192Z,102266.98
2018-11-22T13:22:51.256Z,102270.37
2018-11-22T13:25:19.838Z,102276.81
2018-11-22T13:27:46.953Z,102269.74
2018-11-22T13:30:16.263Z,102271.87
2018-11-22T13:32:44.809Z,102271.50
2018-11-22T13:35:12.310Z,102270.13
2018-11-22T13:37:39.851Z,102268.38
2018-11-22T13:40:08.589Z,102272.95
2018-11-22T13:42:35.829Z,102268.23
2018-11-22T13:45:22.412Z,102280.69
2018-11-22T13:47:50.482Z,102270.33
2018-11-22T13:50:20.161Z,102281.13
2018-11-22T13:52:48.839Z,102276.38
2018-11-22T13:55:15.922Z,102276.89
2018-11-22T13:58:04.916Z,102277.89
2018-11-22T14:00:33.010Z,102274.19
2018-11-22T14:03:01.625Z,102277.02
2018-11-22T14:05:28.718Z,102275.99
2018-11-22T14:07:55.869Z,102276.98
2018-11-22T14:10:23.011Z,102282.39
2018-11-22T14:12:50.456Z,102282.59
2018-11-22T14:15:18.886Z,102273.83
2018-11-22T14:17:46.935Z,102281.80
2018-11-22T14:20:18.637Z,102282.20
2018-11-22T14:22:45.617Z,102285.92
2018-11-22T14:25:13.800Z,102284.88
2018-11-22T14:27:41.679Z,102286.81
2018-11-22T14:30:10.722Z,102281.37
2018-11-22T14:32:38.427Z,102287.66
2018-11-22T14:35:06.881Z,102285.57
2018-11-22T14:37:33.993Z,102285.27
2018-11-22T14:40:01.160Z,102285.83
2018-11-22T14:42:28.216Z,102287.84
2018-11-22T14:44:55.336Z,102289.04
2018-11-22T14:47:22.472Z,102293.73
2018-11-22T14:49:49.562Z,102288.48
2018-11-22T14:52:16.691Z,102291.00
2018-11-22T14:54:43.813Z,102302.59
2018-11-22T14:57:11.004Z,102296.40
2018-11-22T14:59:38.121Z,102303.56
2018-11-22T15:02:05.238Z,102296.92
2018-11-22T15:04:32.352Z,102306.66
2018-11-22T15:06:59.448Z,102306.90
2018-11-22T15:09:26.584Z,102295.96
2018-11-22T15:11:53.713Z,102297.58
2018-11-22T15:14:20.818Z,102300.45
2018-11-22T15:16:47.949Z,102302.23
2018-11-22T15:19:15.055Z,102309.80
2018-11-22T15:21:42.258Z,102308.36
2018-11-22T15:24:09.427Z,102312.05
2018-11-22T15:26:36.528Z,102317.50
2018-11-22T15:29:03.759Z,102316.85
2018-11-22T15:31:30.930Z,102320.08
2018-11-22T15:33:58.067Z,102317.20
2018-11-22T15:36:25.207Z,102311.56
2018-11-22T15:38:52.339Z,102311.41
2018-11-22T15:41:19.469Z,102311.41
2018-11-22T15:43:46.572Z,102311.02
2018-11-22T15:46:13.715Z,102303.03
2018-11-22T15:48:41.113Z,102299.91
2018-11-22T15:51:08.267Z,102302.23
2018-11-22T15:53:35.430Z,102305.43
2018-11-22T15:56:02.592Z,102311.01
2018-11-22T15:58:29.738Z,102303.98
2018-11-22T16:00:56.857Z,102312.59
2018-11-22T16:03:23.980Z,102308.00
2018-11-22T16:05:51.068Z,102309.95
2018-11-22T16:08:18.166Z,102305.38
2018-11-22T16:10:45.285Z,102302.24
2018-11-22T16:13:12.724Z,102309.77
2018-11-22T16:15:45.817Z,102307.03
2018-11-22T16:18:12.939Z,102304.39
2018-11-22T16:20:40.141Z,102305.52
2018-11-22T16:23:07.303Z,102311.29
2018-11-22T16:25:34.405Z,102314.81
2018-11-22T16:28:01.510Z,102315.80
2018-11-22T16:30:29.621Z,102304.96
2018-11-22T16:32:56.706Z,102309.28
2018-11-22T16:35:24.659Z,102314.80
2018-11-22T16:37:51.854Z,102307.31
2018-11-22T16:40:20.307Z,102306.75
2018-11-22T16:42:48.384Z,102300.42
2018-11-22T16:45:35.365Z,102310.28
2018-11-22T16:48:03.958Z,102307.27
2018-11-22T16:50:32.129Z,102305.33
2018-11-22T16:52:59.260Z,102305.22
2018-11-22T16:55:26.969Z,102304.22
2018-11-22T16:57:55.108Z,102296.05
2018-11-22T17:00:24.393Z,102293.39
2018-11-22T17:02:52.398Z,102295.29
2018-11-22T17:05:19.672Z,102297.23
2018-11-22T17:07:47.426Z,102292.55
2018-11-22T17:10:15.943Z,102291.27
2018-11-22T17:12:43.771Z,102300.87
2018-11-22T17:15:13.013Z,102308.52
2018-11-22T17:17:40.172Z,102308.78
2018-11-22T17:20:09.021Z,102299.64
2018-11-22T17:22:36.226Z,102302.88
2018-11-22T17:25:05.585Z,102298.40
2018-11-22T17:27:32.722Z,102304.55
2018-11-22T17:29:59.844Z,102299.97
2018-11-22T17:32:26.980Z,102305.84
2018-11-22T17:34:55.062Z,102284.45
2018-11-22T17:37:22.147Z,102293.38
2018-11-22T17:39:51.417Z,102299.58
2018-11-22T17:42:18.556Z,102295.67
2018-11-22T17:44:45.700Z,102291.63
2018-11-22T17:47:12.805Z,102292.14
2018-11-22T17:49:39.928Z,102280.20
2018-11-22T17:52:07.012Z,102280.91
2018-11-22T17:54:34.130Z,102284.20
2018-11-22T17:57:01.268Z,102282.13
2018-11-22T17:59:28.424Z,102275.47
2018-11-22T18:01:55.904Z,102279.72
2018-11-22T18:04:23.026Z,102281.97
2018-11-22T18:06:50.255Z,102283.48
2018-11-22T18:09:17.323Z,102276.01
2018-11-22T18:11:44.895Z,102282.14
2018-11-22T18:14:12.012Z,102278.02
2018-11-22T18:16:39.113Z,102275.94
2018-11-22T18:19:06.222Z,102280.36
2018-11-22T18:21:33.343Z,102270.06
2018-11-22T18:24:00.474Z,102280.94
2018-11-22T18:26:27.577Z,102271.68
2018-11-22T18:28:54.703Z,102279.20
2018-11-22T18:31:21.828Z,102271.72
2018-11-22T18:33:48.950Z,102267.48
2018-11-22T18:36:16.066Z,102262.73
2018-11-22T18:38:43.154Z,102259.78
2018-11-22T18:41:10.258Z,102256.83
2018-11-22T18:43:37.363Z,102244.28
2018-11-22T18:46:04.779Z,102247.37
2018-11-22T18:48:31.872Z,102234.48
2018-11-22T18:50:59.002Z,102232.67
2018-11-22T18:53:26.112Z,102232.15
2018-11-22T18:55:53.244Z,102239.23
2018-11-22T18:58:20.351Z,102241.73
2018-11-22T19:00:47.660Z,102244.47
2018-11-22T19:03:16.288Z,102233.82
2018-11-22T19:05:43.398Z,102229.30
2018-11-22T19:08:10.520Z,102229.63
2018-11-22T19:10:38.775Z,102229.23
2018-11-22T19:13:07.266Z,102225.98
2018-11-22T19:15:35.880Z,102220.96
2018-11-22T19:18:03.333Z,102212.52
2018-11-22T19:20:32.421Z,102212.02
2018-11-22T19:23:00.406Z,102202.16
2018-11-22T19:25:27.498Z,102197.11
2018-11-22T19:27:55.440Z,102204.55
2018-11-22T19:30:42.006Z,102201.64
2018-11-22T19:33:10.605Z,102201.14
2018-11-22T19:35:39.614Z,102209.33
2018-11-22T19:38:06.734Z,102203.23
2018-11-22T19:40:35.142Z,102213.48
2018-11-22T19:43:03.425Z,102208.78
2018-11-22T19:45:32.002Z,102215.58
2018-11-22T19:47:59.229Z,102214.72
2018-11-22T19:50:27.328Z,102215.81
2018-11-22T19:52:55.105Z,102218.67
2018-11-22T19:55:41.701Z,102218.14
2018-11-22T19:58:10.201Z,102217.55
2018-11-22T20:00:37.308Z,102211.00
2018-11-22T20:03:05.367Z,102204.38
2018-11-22T20:05:33.924Z,102207.00
2018-11-22T20:08:02.846Z,102209.59
2018-11-22T20:10:34.399Z,102203.72
2018-11-22T20:13:01.444Z,102202.98
2018-11-22T20:15:28.803Z,102201.06
2018-11-22T20:17:56.459Z,102195.41
2018-11-22T20:20:24.121Z,102192.66
2018-11-22T20:22:51.741Z,102189.27
2018-11-22T20:25:18.975Z,102191.92
2018-11-22T20:27:46.670Z,102194.62
2018-11-22T20:30:16.435Z,102189.73
2018-11-22T20:32:43.852Z,102186.98
2018-11-22T20:35:12.863Z,102183.81
2018-11-22T20:37:40.036Z,102192.98
2018-11-22T20:40:07.940Z,102194.69
2018-11-22T20:42:35.112Z,102196.81
2018-11-22T20:45:02.195Z,102192.40
2018-11-22T20:47:29.301Z,102184.33
2018-11-22T20:49:56.418Z,102191.08
2018-11-22T20:52:23.556Z,102188.61
2018-11-22T20:54:50.654Z,102182.06
2018-11-22T20:57:17.761Z,102181.05
2018-11-22T20:59:44.897Z,102174.84
2018-11-22T21:02:12.050Z,102174.25
2018-11-22T21:04:39.158Z,102172.14
2018-11-22T21:07:06.621Z,102166.70
2018-11-22T21:09:33.707Z,102168.90
2018-11-22T21:12:00.793Z,102163.17
2018-11-22T21:14:27.895Z,102157.70
2018-11-22T21:16:54.994Z,102155.28
2018-11-22T21:19:22.082Z,102156.41
2018-11-22T21:21:49.195Z,102161.92
2018-11-22T21:24:16.304Z,102155.44
2018-11-22T21:26:43.431Z,102159.91
2018-11-22T21:29:10.563Z,102157.22
2018-11-22T21:31:37.628Z,102156.90
2018-11-22T21:34:04.792Z,102165.29
2018-11-22T21:36:31.875Z,102160.66
2018-11-22T21:38:58.983Z,102152.41
2018-11-22T21:41:26.071Z,102145.33
2018-11-22T21:43:53.162Z,102136.55
2018-11-22T21:46:39.715Z,102137.48
2018-11-22T21:49:06.838Z,102135.87
2018-11-22T21:51:39.422Z,102131.22
2018-11-22T21:54:01.299Z,102125.11
2018-11-22T21:56:28.604Z,102122.15
2018-11-22T21:58:55.721Z,102121.78
2018-11-22T22:01:22.820Z,102119.45
2018-11-22T22:03:49.968Z,102120.16
2018-11-22T22:06:17.067Z,102111.06
2018-11-22T22:08:44.174Z,102115.05
2018-11-22T22:11:11.319Z,102115.75
2018-11-22T22:13:38.427Z,102119.20
2018-11-22T22:16:05.687Z,102113.86
2018-11-22T22:18:32.809Z,102112.92
2018-11-22T22:20:59.919Z,102110.80
2018-11-22T22:23:27.006Z,102107.70
2018-11-22T22:25:54.185Z,102108.03
2018-11-22T22:28:21.276Z,102094.95
2018-11-22T22:30:48.358Z,102101.25
2018-11-22T22:33:15.422Z,102096.72
2018-11-22T22:35:42.519Z,102090.97
2018-11-22T22:38:09.615Z,102076.24
2018-11-22T22:40:36.732Z,102071.41
2018-11-22T22:43:03.900Z,102078.28
2018-11-22T22:45:31.861Z,102078.58
2018-11-22T22:47:58.981Z,102079.45
2018-11-22T22:50:27.228Z,102080.77
2018-11-22T22:52:55.520Z,102082.56
2018-11-22T22:55:22.648Z,102081.98
2018-11-22T22:57:49.793Z,102031.45
2018-11-22T23:00:55.828Z,102057.17
2018-11-22T23:03:22.963Z,102047.33
2018-11-22T23:05:50.050Z,102053.05
2018-11-22T23:08:17.154Z,102047.52
2018-11-22T23:10:44.271Z,102042.72
2018-11-22T23:13:11.388Z,102040.88
2018-11-22T23:15:38.463Z,102039.70
2018-11-22T23:18:05.555Z,102041.70
2018-11-22T23:20:33.865Z,102042.02
2018-11-22T23:23:00.941Z,102040.24
2018-11-22T23:25:28.597Z,102033.16
2018-11-22T23:27:55.690Z,102019.38
2018-11-22T23:30:33.154Z,102016.30
2018-11-22T23:33:09.241Z,102021.05
2018-11-22T23:35:36.337Z,102023.91
2018-11-22T23:38:03.439Z,102019.03
2018-11-22T23:40:31.746Z,102009.37
2018-11-22T23:42:58.867Z,102015.77
2018-11-22T23:45:27.235Z,102010.64
2018-11-22T23:47:54.364Z,102002.96
2018-11-22T23:50:22.821Z,102000.39
2018-11-22T23:52:51.188Z,101994.94
2018-11-22T23:55:18.392Z,101998.39
2018-11-22T23:57:45.545Z,101989.36
